sensor_id;sensor_type;location;lat;lon;timestamp;temperature;humidity
75010;DHT22;63564;46.840;18.336;2023-02-01T00:00:33;3.87;71.84
75010;DHT22;63564;46.840;18.336;2023-02-01T00:03:34;3.84;71.49
75010;DHT22;63564;46.840;18.336;2023-02-01T00:06:35;3.77;72.07
75010;DHT22;63564;46.840;18.336;2023-02-01T00:09:35;3.76;72.40
75010;DHT22;63564;46.840;18.336;2023-02-01T00:12:36;3.70;73.01
75010;DHT22;63564;46.840;18.336;2023-02-01T00:15:36;3.69;72.65
75010;DHT22;63564;46.840;18.336;2023-02-01T00:18:37;3.67;74.42
75010;DHT22;63564;46.840;18.336;2023-02-01T00:21:37;3.69;73.36
75010;DHT22;63564;46.840;18.336;2023-02-01T00:24:38;3.63;73.77
75010;DHT22;63564;46.840;18.336;2023-02-01T00:27:38;3.67;73.01
75010;DHT22;63564;46.840;18.336;2023-02-01T00:30:39;3.77;72.95
75010;DHT22;63564;46.840;18.336;2023-02-01T00:33:39;3.77;72.78
75010;DHT22;63564;46.840;18.336;2023-02-01T00:36:40;3.77;72.44
75010;DHT22;63564;46.840;18.336;2023-02-01T00:39:41;3.76;72.38
75010;DHT22;63564;46.840;18.336;2023-02-01T00:42:41;3.84;72.38
75010;DHT22;63564;46.840;18.336;2023-02-01T00:45:41;3.67;72.79
75010;DHT22;63564;46.840;18.336;2023-02-01T00:48:42;3.58;72.18
75010;DHT22;63564;46.840;18.336;2023-02-01T00:51:42;3.50;72.32
75010;DHT22;63564;46.840;18.336;2023-02-01T00:54:43;3.39;73.30
75010;DHT22;63564;46.840;18.336;2023-02-01T00:57:43;3.33;73.27
75010;DHT22;63564;46.840;18.336;2023-02-01T01:00:44;3.26;74.20
75010;DHT22;63564;46.840;18.336;2023-02-01T01:03:49;3.31;73.54
75010;DHT22;63564;46.840;18.336;2023-02-01T01:06:53;3.19;73.50
75010;DHT22;63564;46.840;18.336;2023-02-01T01:09:54;3.18;73.74
75010;DHT22;63564;46.840;18.336;2023-02-01T01:12:54;3.15;74.05
75010;DHT22;63564;46.840;18.336;2023-02-01T01:15:55;3.11;73.61
75010;DHT22;63564;46.840;18.336;2023-02-01T01:18:55;2.93;74.76
75010;DHT22;63564;46.840;18.336;2023-02-01T01:21:56;2.79;75.41
75010;DHT22;63564;46.840;18.336;2023-02-01T01:24:56;2.61;76.06
75010;DHT22;63564;46.840;18.336;2023-02-01T01:27:57;2.52;75.10
75010;DHT22;63564;46.840;18.336;2023-02-01T01:30:57;2.63;74.45
75010;DHT22;63564;46.840;18.336;2023-02-01T01:33:59;2.60;74.17
75010;DHT22;63564;46.840;18.336;2023-02-01T01:36:59;2.54;74.07
75010;DHT22;63564;46.840;18.336;2023-02-01T01:39:59;2.57;74.08
75010;DHT22;63564;46.840;18.336;2023-02-01T01:43:00;2.45;74.15
75010;DHT22;63564;46.840;18.336;2023-02-01T01:46:00;2.49;73.56
75010;DHT22;63564;46.840;18.336;2023-02-01T01:52:12;2.47;73.90
75010;DHT22;63564;46.840;18.336;2023-02-01T01:55:14;2.57;73.33
75010;DHT22;63564;46.840;18.336;2023-02-01T01:58:18;2.57;72.89
75010;DHT22;63564;46.840;18.336;2023-02-01T02:01:19;2.46;73.51
75010;DHT22;63564;46.840;18.336;2023-02-01T02:04:19;2.35;74.11
75010;DHT22;63564;46.840;18.336;2023-02-01T02:07:25;2.29;74.15
75010;DHT22;63564;46.840;18.336;2023-02-01T02:10:27;2.30;74.00
75010;DHT22;63564;46.840;18.336;2023-02-01T02:14:01;2.21;74.54
75010;DHT22;63564;46.840;18.336;2023-02-01T02:23:38;2.08;74.75
75010;DHT22;63564;46.840;18.336;2023-02-01T02:37:23;2.09;74.60
75010;DHT22;63564;46.840;18.336;2023-02-01T02:40:33;1.93;75.44
75010;DHT22;63564;46.840;18.336;2023-02-01T02:43:46;2.12;74.56
75010;DHT22;63564;46.840;18.336;2023-02-01T02:47:22;2.19;74.24
75010;DHT22;63564;46.840;18.336;2023-02-01T02:50:36;2.30;73.67
75010;DHT22;63564;46.840;18.336;2023-02-01T02:54:08;2.28;73.53
75010;DHT22;63564;46.840;18.336;2023-02-01T02:57:32;2.07;74.51
75010;DHT22;63564;46.840;18.336;2023-02-01T03:00:53;2.26;73.71
75010;DHT22;63564;46.840;18.336;2023-02-01T03:04:13;2.37;73.20
75010;DHT22;63564;46.840;18.336;2023-02-01T03:14:00;2.54;72.54
75010;DHT22;63564;46.840;18.336;2023-02-01T03:17:11;2.52;72.41
75010;DHT22;63564;46.840;18.336;2023-02-01T03:20:14;2.57;72.12
75010;DHT22;63564;46.840;18.336;2023-02-01T03:23:19;2.54;72.21
75010;DHT22;63564;46.840;18.336;2023-02-01T03:26:22;2.57;71.94
75010;DHT22;63564;46.840;18.336;2023-02-01T03:29:29;2.58;71.49
75010;DHT22;63564;46.840;18.336;2023-02-01T03:32:31;2.58;71.64
75010;DHT22;63564;46.840;18.336;2023-02-01T03:39:29;2.60;71.39
75010;DHT22;63564;46.840;18.336;2023-02-01T03:42:37;2.42;72.39
75010;DHT22;63564;46.840;18.336;2023-02-01T03:45:41;2.37;72.21
75010;DHT22;63564;46.840;18.336;2023-02-01T03:48:44;2.40;72.32
75010;DHT22;63564;46.840;18.336;2023-02-01T03:51:44;2.26;72.74
75010;DHT22;63564;46.840;18.336;2023-02-01T03:54:46;2.21;72.90
75010;DHT22;63564;46.840;18.336;2023-02-01T04:01:10;2.11;73.44
75010;DHT22;63564;46.840;18.336;2023-02-01T04:04:10;2.08;73.65
75010;DHT22;63564;46.840;18.336;2023-02-01T04:07:11;2.08;73.55
75010;DHT22;63564;46.840;18.336;2023-02-01T04:10:12;2.14;73.34
75010;DHT22;63564;46.840;18.336;2023-02-01T04:13:13;2.15;73.30
75010;DHT22;63564;46.840;18.336;2023-02-01T04:16:13;2.14;73.37
75010;DHT22;63564;46.840;18.336;2023-02-01T04:19:14;2.02;73.66
75010;DHT22;63564;46.840;18.336;2023-02-01T04:22:15;2.02;73.71
75010;DHT22;63564;46.840;18.336;2023-02-01T04:25:15;2.02;73.82
75010;DHT22;63564;46.840;18.336;2023-02-01T04:28:17;2.02;73.86
75010;DHT22;63564;46.840;18.336;2023-02-01T04:31:18;2.04;73.70
75010;DHT22;63564;46.840;18.336;2023-02-01T04:34:25;2.09;73.57
75010;DHT22;63564;46.840;18.336;2023-02-01T04:37:26;1.95;74.09
75010;DHT22;63564;46.840;18.336;2023-02-01T04:40:26;1.91;74.43
75010;DHT22;63564;46.840;18.336;2023-02-01T04:43:27;1.94;74.47
75010;DHT22;63564;46.840;18.336;2023-02-01T04:46:27;1.91;74.62
75010;DHT22;63564;46.840;18.336;2023-02-01T04:49:28;1.95;74.41
75010;DHT22;63564;46.840;18.336;2023-02-01T04:52:28;1.88;74.67
75010;DHT22;63564;46.840;18.336;2023-02-01T04:55:28;1.91;74.65
75010;DHT22;63564;46.840;18.336;2023-02-01T04:58:29;1.87;75.12
75010;DHT22;63564;46.840;18.336;2023-02-01T05:01:30;1.95;74.85
75010;DHT22;63564;46.840;18.336;2023-02-01T05:04:30;1.97;75.16
75010;DHT22;63564;46.840;18.336;2023-02-01T05:07:31;1.95;75.35
75010;DHT22;63564;46.840;18.336;2023-02-01T05:10:31;2.01;75.38
75010;DHT22;63564;46.840;18.336;2023-02-01T05:13:32;2.04;75.57
75010;DHT22;63564;46.840;18.336;2023-02-01T05:16:50;2.32;74.59
75010;DHT22;63564;46.840;18.336;2023-02-01T05:19:50;2.35;74.88
75010;DHT22;63564;46.840;18.336;2023-02-01T05:22:51;2.54;74.27
75010;DHT22;63564;46.840;18.336;2023-02-01T05:25:51;2.63;74.30
75010;DHT22;63564;46.840;18.336;2023-02-01T05:28:52;2.67;74.34
75010;DHT22;63564;46.840;18.336;2023-02-01T05:31:52;2.72;74.79
75010;DHT22;63564;46.840;18.336;2023-02-01T05:34:53;2.68;75.40
75010;DHT22;63564;46.840;18.336;2023-02-01T05:37:53;2.79;75.60
75010;DHT22;63564;46.840;18.336;2023-02-01T05:40:54;2.74;76.16
75010;DHT22;63564;46.840;18.336;2023-02-01T05:43:54;2.74;76.20
75010;DHT22;63564;46.840;18.336;2023-02-01T05:46:54;2.79;76.22
75010;DHT22;63564;46.840;18.336;2023-02-01T05:49:55;2.85;75.96
75010;DHT22;63564;46.840;18.336;2023-02-01T05:52:55;3.11;74.86
75010;DHT22;63564;46.840;18.336;2023-02-01T05:55:56;3.08;74.99
75010;DHT22;63564;46.840;18.336;2023-02-01T05:58:56;3.05;75.32
75010;DHT22;63564;46.840;18.336;2023-02-01T06:01:57;3.15;75.33
75010;DHT22;63564;46.840;18.336;2023-02-01T06:04:57;3.18;75.38
75010;DHT22;63564;46.840;18.336;2023-02-01T06:07:57;3.26;75.30
75010;DHT22;63564;46.840;18.336;2023-02-01T06:11:03;3.33;75.22
75010;DHT22;63564;46.840;18.336;2023-02-01T06:14:04;3.22;75.55
75010;DHT22;63564;46.840;18.336;2023-02-01T06:17:04;3.19;75.79
75010;DHT22;63564;46.840;18.336;2023-02-01T06:20:07;3.16;76.02
75010;DHT22;63564;46.840;18.336;2023-02-01T06:23:08;3.08;76.35
75010;DHT22;63564;46.840;18.336;2023-02-01T06:26:09;3.04;76.81
75010;DHT22;63564;46.840;18.336;2023-02-01T06:29:10;3.05;76.33
75010;DHT22;63564;46.840;18.336;2023-02-01T06:32:10;3.01;76.27
75010;DHT22;63564;46.840;18.336;2023-02-01T06:35:11;2.94;76.42
75010;DHT22;63564;46.840;18.336;2023-02-01T06:38:16;2.95;76.20
75010;DHT22;63564;46.840;18.336;2023-02-01T06:41:17;2.98;76.07
75010;DHT22;63564;46.840;18.336;2023-02-01T06:44:18;3.07;75.86
75010;DHT22;63564;46.840;18.336;2023-02-01T06:47:18;3.16;75.30
75010;DHT22;63564;46.840;18.336;2023-02-01T06:50:18;3.31;74.65
75010;DHT22;63564;46.840;18.336;2023-02-01T06:53:19;3.31;74.70
75010;DHT22;63564;46.840;18.336;2023-02-01T06:56:20;3.32;74.65
75010;DHT22;63564;46.840;18.336;2023-02-01T06:59:20;3.33;74.71
75010;DHT22;63564;46.840;18.336;2023-02-01T07:02:21;3.32;75.01
75010;DHT22;63564;46.840;18.336;2023-02-01T07:05:21;3.43;74.54
75010;DHT22;63564;46.840;18.336;2023-02-01T07:08:22;3.50;74.49
75010;DHT22;63564;46.840;18.336;2023-02-01T07:11:22;3.55;74.42
75010;DHT22;63564;46.840;18.336;2023-02-01T07:14:23;3.58;74.42
75010;DHT22;63564;46.840;18.336;2023-02-01T07:17:23;3.78;73.88
75010;DHT22;63564;46.840;18.336;2023-02-01T07:20:24;3.95;73.51
75010;DHT22;63564;46.840;18.336;2023-02-01T07:23:24;4.14;73.03
75010;DHT22;63564;46.840;18.336;2023-02-01T07:26:25;4.29;72.91
75010;DHT22;63564;46.840;18.336;2023-02-01T07:29:25;4.64;72.11
75010;DHT22;63564;46.840;18.336;2023-02-01T07:32:26;5.07;70.47
75010;DHT22;63564;46.840;18.336;2023-02-01T07:35:29;5.45;69.19
75010;DHT22;63564;46.840;18.336;2023-02-01T07:38:30;5.55;69.25
75010;DHT22;63564;46.840;18.336;2023-02-01T07:41:30;5.62;69.59
75010;DHT22;63564;46.840;18.336;2023-02-01T07:44:31;5.69;68.96
75010;DHT22;63564;46.840;18.336;2023-02-01T07:47:31;5.69;69.13
75010;DHT22;63564;46.840;18.336;2023-02-01T07:50:31;5.71;69.04
75010;DHT22;63564;46.840;18.336;2023-02-01T07:53:33;5.81;68.52
75010;DHT22;63564;46.840;18.336;2023-02-01T07:56:34;5.90;68.45
75010;DHT22;63564;46.840;18.336;2023-02-01T07:59:34;5.96;68.69
75010;DHT22;63564;46.840;18.336;2023-02-01T08:02:35;6.18;69.92
75010;DHT22;63564;46.840;18.336;2023-02-01T08:05:35;6.26;70.92
75010;DHT22;63564;46.840;18.336;2023-02-01T08:08:37;6.32;68.52
75010;DHT22;63564;46.840;18.336;2023-02-01T08:11:38;6.53;69.43
75010;DHT22;63564;46.840;18.336;2023-02-01T08:14:38;6.42;68.33
75010;DHT22;63564;46.840;18.336;2023-02-01T08:17:47;6.52;68.27
75010;DHT22;63564;46.840;18.336;2023-02-01T08:20:47;6.52;69.40
75010;DHT22;63564;46.840;18.336;2023-02-01T08:23:48;6.89;68.74
75010;DHT22;63564;46.840;18.336;2023-02-01T08:26:49;6.99;67.79
75010;DHT22;63564;46.840;18.336;2023-02-01T08:29:49;6.90;67.58
75010;DHT22;63564;46.840;18.336;2023-02-01T08:32:50;7.14;66.67
75010;DHT22;63564;46.840;18.336;2023-02-01T08:35:51;7.01;67.05
75010;DHT22;63564;46.840;18.336;2023-02-01T08:38:52;6.91;67.71
75010;DHT22;63564;46.840;18.336;2023-02-01T08:41:52;6.66;68.52
75010;DHT22;63564;46.840;18.336;2023-02-01T08:45:11;6.13;70.58
75010;DHT22;63564;46.840;18.336;2023-02-01T08:48:11;5.96;71.33
75010;DHT22;63564;46.840;18.336;2023-02-01T08:51:13;5.97;72.73
75010;DHT22;63564;46.840;18.336;2023-02-01T08:54:14;6.17;71.44
75010;DHT22;63564;46.840;18.336;2023-02-01T08:57:15;5.89;72.01
75010;DHT22;63564;46.840;18.336;2023-02-01T09:00:16;5.73;72.26
75010;DHT22;63564;46.840;18.336;2023-02-01T09:03:17;5.69;71.95
75010;DHT22;63564;46.840;18.336;2023-02-01T09:06:17;5.77;72.03
75010;DHT22;63564;46.840;18.336;2023-02-01T09:09:22;5.76;72.41
75010;DHT22;63564;46.840;18.336;2023-02-01T09:12:23;5.76;72.48
75010;DHT22;63564;46.840;18.336;2023-02-01T09:15:23;5.76;72.93
75010;DHT22;63564;46.840;18.336;2023-02-01T09:18:24;5.94;71.32
75010;DHT22;63564;46.840;18.336;2023-02-01T09:21:24;5.93;71.89
75010;DHT22;63564;46.840;18.336;2023-02-01T09:24:25;5.96;71.90
75010;DHT22;63564;46.840;18.336;2023-02-01T09:27:25;6.06;71.87
75010;DHT22;63564;46.840;18.336;2023-02-01T09:30:26;6.11;71.58
75010;DHT22;63564;46.840;18.336;2023-02-01T09:33:27;6.18;71.50
75010;DHT22;63564;46.840;18.336;2023-02-01T09:36:28;6.20;71.40
75010;DHT22;63564;46.840;18.336;2023-02-01T09:39:29;6.29;71.17
75010;DHT22;63564;46.840;18.336;2023-02-01T09:46:29;6.62;71.33
75010;DHT22;63564;46.840;18.336;2023-02-01T09:49:37;6.79;71.07
75010;DHT22;63564;46.840;18.336;2023-02-01T09:56:13;6.77;68.50
75010;DHT22;63564;46.840;18.336;2023-02-01T09:59:23;6.63;69.06
75010;DHT22;63564;46.840;18.336;2023-02-01T10:02:26;6.65;68.19
75010;DHT22;63564;46.840;18.336;2023-02-01T10:09:13;6.39;69.50
75010;DHT22;63564;46.840;18.336;2023-02-01T10:22:09;6.21;71.86
75010;DHT22;63564;46.840;18.336;2023-02-01T10:28:25;6.71;69.64
75010;DHT22;63564;46.840;18.336;2023-02-01T10:31:28;6.93;69.13
75010;DHT22;63564;46.840;18.336;2023-02-01T10:34:33;7.12;69.08
75010;DHT22;63564;46.840;18.336;2023-02-01T10:37:35;7.10;69.78
75010;DHT22;63564;46.840;18.336;2023-02-01T10:40:37;7.25;69.70
75010;DHT22;63564;46.840;18.336;2023-02-01T10:43:37;7.12;71.57
75010;DHT22;63564;46.840;18.336;2023-02-01T10:46:39;6.77;72.77
75010;DHT22;63564;46.840;18.336;2023-02-01T10:50:02;6.73;69.21
75010;DHT22;63564;46.840;18.336;2023-02-01T10:53:33;6.48;71.77
75010;DHT22;63564;46.840;18.336;2023-02-01T10:56:38;6.29;71.88
75010;DHT22;63564;46.840;18.336;2023-02-01T10:59:38;6.25;73.21
75010;DHT22;63564;46.840;18.336;2023-02-01T11:02:39;6.06;72.63
75010;DHT22;63564;46.840;18.336;2023-02-01T11:05:46;5.89;74.04
75010;DHT22;63564;46.840;18.336;2023-02-01T11:08:50;5.73;74.18
75010;DHT22;63564;46.840;18.336;2023-02-01T11:14:57;5.60;73.34
75010;DHT22;63564;46.840;18.336;2023-02-01T11:18:15;5.35;74.10
75010;DHT22;63564;46.840;18.336;2023-02-01T11:21:16;5.29;73.90
75010;DHT22;63564;46.840;18.336;2023-02-01T11:24:23;5.45;73.36
75010;DHT22;63564;46.840;18.336;2023-02-01T11:27:25;5.25;73.65
75010;DHT22;63564;46.840;18.336;2023-02-01T11:30:38;5.45;73.51
75010;DHT22;63564;46.840;18.336;2023-02-01T11:33:47;5.46;73.52
75010;DHT22;63564;46.840;18.336;2023-02-01T11:36:49;5.43;73.46
75010;DHT22;63564;46.840;18.336;2023-02-01T11:39:59;5.42;73.46
75010;DHT22;63564;46.840;18.336;2023-02-01T11:46:17;5.31;74.72
75010;DHT22;63564;46.840;18.336;2023-02-01T11:49:25;5.38;74.30
75010;DHT22;63564;46.840;18.336;2023-02-01T12:02:24;5.40;72.48
75010;DHT22;63564;46.840;18.336;2023-02-01T12:05:34;5.45;72.81
75010;DHT22;63564;46.840;18.336;2023-02-01T12:08:46;5.40;72.79
75010;DHT22;63564;46.840;18.336;2023-02-01T12:12:12;5.53;71.54
75010;DHT22;63564;46.840;18.336;2023-02-01T12:19:11;5.60;72.29
75010;DHT22;63564;46.840;18.336;2023-02-01T12:45:02;5.73;71.10
75010;DHT22;63564;46.840;18.336;2023-02-01T12:48:25;5.66;73.04
75010;DHT22;63564;46.840;18.336;2023-02-01T12:51:34;5.60;72.49
75010;DHT22;63564;46.840;18.336;2023-02-01T12:54:45;5.85;73.40
75010;DHT22;63564;46.840;18.336;2023-02-01T12:57:53;5.63;73.98
75010;DHT22;63564;46.840;18.336;2023-02-01T13:01:06;5.62;74.67
75010;DHT22;63564;46.840;18.336;2023-02-01T13:07:19;5.35;76.50
75010;DHT22;63564;46.840;18.336;2023-02-01T13:17:19;5.52;76.71
75010;DHT22;63564;46.840;18.336;2023-02-01T13:20:49;5.70;76.05
75010;DHT22;63564;46.840;18.336;2023-02-01T13:23:52;5.94;74.41
75010;DHT22;63564;46.840;18.336;2023-02-01T13:26:54;5.91;73.41
75010;DHT22;63564;46.840;18.336;2023-02-01T13:29:58;5.67;74.38
75010;DHT22;63564;46.840;18.336;2023-02-01T13:39:48;5.39;74.78
75010;DHT22;63564;46.840;18.336;2023-02-01T13:42:55;5.14;75.70
75010;DHT22;63564;46.840;18.336;2023-02-01T13:46:04;5.25;75.35
75010;DHT22;63564;46.840;18.336;2023-02-01T13:49:05;5.00;74.89
75010;DHT22;63564;46.840;18.336;2023-02-01T13:52:05;5.12;76.18
75010;DHT22;63564;46.840;18.336;2023-02-01T13:58:29;4.74;76.32
75010;DHT22;63564;46.840;18.336;2023-02-01T14:01:33;4.73;77.20
75010;DHT22;63564;46.840;18.336;2023-02-01T14:04:49;4.72;77.48
75010;DHT22;63564;46.840;18.336;2023-02-01T14:17:37;4.18;83.71
75010;DHT22;63564;46.840;18.336;2023-02-01T14:20:43;4.09;81.01
75010;DHT22;63564;46.840;18.336;2023-02-01T14:23:48;3.95;83.79
75010;DHT22;63564;46.840;18.336;2023-02-01T14:26:56;3.90;84.73
75010;DHT22;63564;46.840;18.336;2023-02-01T14:30:00;3.80;86.72
75010;DHT22;63564;46.840;18.336;2023-02-01T14:33:12;3.76;84.00
75010;DHT22;63564;46.840;18.336;2023-02-01T14:36:17;3.77;85.14
75010;DHT22;63564;46.840;18.336;2023-02-01T14:42:53;3.99;85.10
75010;DHT22;63564;46.840;18.336;2023-02-01T14:45:54;3.95;84.40
75010;DHT22;63564;46.840;18.336;2023-02-01T14:48:55;3.94;84.89
75010;DHT22;63564;46.840;18.336;2023-02-01T14:51:56;3.87;85.54
75010;DHT22;63564;46.840;18.336;2023-02-01T14:55:01;3.81;84.88
75010;DHT22;63564;46.840;18.336;2023-02-01T14:58:06;3.81;84.47
75010;DHT22;63564;46.840;18.336;2023-02-01T15:01:47;3.80;84.53
75010;DHT22;63564;46.840;18.336;2023-02-01T15:04:54;3.94;84.07
75010;DHT22;63564;46.840;18.336;2023-02-01T15:07:54;3.87;85.86
75010;DHT22;63564;46.840;18.336;2023-02-01T15:10:57;3.93;85.67
75010;DHT22;63564;46.840;18.336;2023-02-01T15:13:59;3.81;86.99
75010;DHT22;63564;46.840;18.336;2023-02-01T15:17:01;3.80;87.50
75010;DHT22;63564;46.840;18.336;2023-02-01T15:20:23;3.76;87.85
75010;DHT22;63564;46.840;18.336;2023-02-01T15:23:23;3.76;88.14
75010;DHT22;63564;46.840;18.336;2023-02-01T15:26:25;3.81;87.48
75010;DHT22;63564;46.840;18.336;2023-02-01T15:29:26;3.90;86.58
75010;DHT22;63564;46.840;18.336;2023-02-01T15:32:33;3.94;86.59
75010;DHT22;63564;46.840;18.336;2023-02-01T15:35:55;4.01;85.44
75010;DHT22;63564;46.840;18.336;2023-02-01T15:42:20;3.98;85.04
75010;DHT22;63564;46.840;18.336;2023-02-01T15:45:24;3.84;86.58
75010;DHT22;63564;46.840;18.336;2023-02-01T15:48:27;3.78;86.63
75010;DHT22;63564;46.840;18.336;2023-02-01T15:51:30;3.95;84.73
75010;DHT22;63564;46.840;18.336;2023-02-01T15:54:43;4.04;83.84
75010;DHT22;63564;46.840;18.336;2023-02-01T15:57:46;4.08;84.26
75010;DHT22;63564;46.840;18.336;2023-02-01T16:01:04;4.12;83.49
75010;DHT22;63564;46.840;18.336;2023-02-01T16:04:26;4.14;83.59
75010;DHT22;63564;46.840;18.336;2023-02-01T16:07:32;4.15;83.16
75010;DHT22;63564;46.840;18.336;2023-02-01T16:10:39;4.19;82.96
75010;DHT22;63564;46.840;18.336;2023-02-01T16:13:40;4.16;83.62
75010;DHT22;63564;46.840;18.336;2023-02-01T16:16:41;4.14;83.37
75010;DHT22;63564;46.840;18.336;2023-02-01T16:19:42;4.07;83.91
75010;DHT22;63564;46.840;18.336;2023-02-01T16:22:42;4.18;81.86
75010;DHT22;63564;46.840;18.336;2023-02-01T16:25:43;4.42;81.01
75010;DHT22;63564;46.840;18.336;2023-02-01T16:28:43;4.66;78.43
75010;DHT22;63564;46.840;18.336;2023-02-01T16:31:44;4.83;78.38
75010;DHT22;63564;46.840;18.336;2023-02-01T16:34:45;4.97;76.45
75010;DHT22;63564;46.840;18.336;2023-02-01T16:37:46;4.95;77.23
75010;DHT22;63564;46.840;18.336;2023-02-01T16:40:48;5.01;77.23
75010;DHT22;63564;46.840;18.336;2023-02-01T16:43:51;5.14;76.07
75010;DHT22;63564;46.840;18.336;2023-02-01T16:46:53;5.29;74.94
75010;DHT22;63564;46.840;18.336;2023-02-01T16:49:53;5.58;73.11
75010;DHT22;63564;46.840;18.336;2023-02-01T16:52:54;5.65;72.57
75010;DHT22;63564;46.840;18.336;2023-02-01T16:55:55;5.62;72.67
75010;DHT22;63564;46.840;18.336;2023-02-01T16:58:57;5.56;72.75
75010;DHT22;63564;46.840;18.336;2023-02-01T17:01:58;5.31;74.86
75010;DHT22;63564;46.840;18.336;2023-02-01T17:04:58;5.01;76.49
75010;DHT22;63564;46.840;18.336;2023-02-01T17:08:06;4.80;76.96
75010;DHT22;63564;46.840;18.336;2023-02-01T17:11:07;4.63;77.87
75010;DHT22;63564;46.840;18.336;2023-02-01T17:14:17;4.49;77.88
75010;DHT22;63564;46.840;18.336;2023-02-01T17:17:19;4.39;77.63
75010;DHT22;63564;46.840;18.336;2023-02-01T17:20:22;4.31;78.28
75010;DHT22;63564;46.840;18.336;2023-02-01T17:23:24;4.25;78.01
75010;DHT22;63564;46.840;18.336;2023-02-01T17:26:25;4.19;78.52
75010;DHT22;63564;46.840;18.336;2023-02-01T17:29:25;4.07;78.79
75010;DHT22;63564;46.840;18.336;2023-02-01T17:32:26;3.94;79.27
75010;DHT22;63564;46.840;18.336;2023-02-01T17:35:30;3.95;78.89
75010;DHT22;63564;46.840;18.336;2023-02-01T17:38:32;3.81;79.28
75010;DHT22;63564;46.840;18.336;2023-02-01T17:41:35;3.73;79.56
75010;DHT22;63564;46.840;18.336;2023-02-01T17:44:37;3.55;80.81
75010;DHT22;63564;46.840;18.336;2023-02-01T17:47:38;3.49;80.46
75010;DHT22;63564;46.840;18.336;2023-02-01T17:50:39;3.56;79.96
75010;DHT22;63564;46.840;18.336;2023-02-01T17:53:39;3.56;79.99
75010;DHT22;63564;46.840;18.336;2023-02-01T17:56:40;3.64;79.39
75010;DHT22;63564;46.840;18.336;2023-02-01T17:59:42;3.77;78.72
75010;DHT22;63564;46.840;18.336;2023-02-01T18:02:43;3.83;78.43
75010;DHT22;63564;46.840;18.336;2023-02-01T18:05:44;3.71;78.84
75010;DHT22;63564;46.840;18.336;2023-02-01T18:08:50;3.50;79.98
75010;DHT22;63564;46.840;18.336;2023-02-01T18:11:51;3.59;79.25
75010;DHT22;63564;46.840;18.336;2023-02-01T18:14:54;3.73;78.69
75010;DHT22;63564;46.840;18.336;2023-02-01T18:17:56;3.76;78.46
75010;DHT22;63564;46.840;18.336;2023-02-01T18:20:58;3.73;78.70
75010;DHT22;63564;46.840;18.336;2023-02-01T18:24:02;3.83;78.20
75010;DHT22;63564;46.840;18.336;2023-02-01T18:27:03;3.98;77.55
75010;DHT22;63564;46.840;18.336;2023-02-01T18:30:04;4.15;76.91
75010;DHT22;63564;46.840;18.336;2023-02-01T18:33:11;4.18;76.56
75010;DHT22;63564;46.840;18.336;2023-02-01T18:36:12;4.18;76.83
75010;DHT22;63564;46.840;18.336;2023-02-01T18:39:13;3.97;77.56
75010;DHT22;63564;46.840;18.336;2023-02-01T18:42:13;4.38;76.44
75010;DHT22;63564;46.840;18.336;2023-02-01T18:45:37;4.41;76.34
75010;DHT22;63564;46.840;18.336;2023-02-01T18:48:38;4.36;76.82
75010;DHT22;63564;46.840;18.336;2023-02-01T18:51:40;4.19;77.12
75010;DHT22;63564;46.840;18.336;2023-02-01T18:54:45;4.19;77.33
75010;DHT22;63564;46.840;18.336;2023-02-01T18:57:45;4.08;77.99
75010;DHT22;63564;46.840;18.336;2023-02-01T19:00:47;4.08;78.02
75010;DHT22;63564;46.840;18.336;2023-02-01T19:03:48;4.01;78.38
75010;DHT22;63564;46.840;18.336;2023-02-01T19:06:49;4.11;78.12
75010;DHT22;63564;46.840;18.336;2023-02-01T19:09:50;4.14;78.17
75010;DHT22;63564;46.840;18.336;2023-02-01T19:12:52;4.16;78.31
75010;DHT22;63564;46.840;18.336;2023-02-01T19:15:55;4.18;78.23
75010;DHT22;63564;46.840;18.336;2023-02-01T19:18:56;4.45;76.95
75010;DHT22;63564;46.840;18.336;2023-02-01T19:21:58;4.39;77.43
75010;DHT22;63564;46.840;18.336;2023-02-01T19:24:59;4.36;78.02
75010;DHT22;63564;46.840;18.336;2023-02-01T19:28:01;4.31;78.07
75010;DHT22;63564;46.840;18.336;2023-02-01T19:31:03;4.32;78.24
75010;DHT22;63564;46.840;18.336;2023-02-01T19:34:04;4.26;78.54
75010;DHT22;63564;46.840;18.336;2023-02-01T19:37:06;4.21;79.00
75010;DHT22;63564;46.840;18.336;2023-02-01T19:40:13;4.19;79.06
75010;DHT22;63564;46.840;18.336;2023-02-01T19:43:14;4.15;79.40
75010;DHT22;63564;46.840;18.336;2023-02-01T19:46:15;4.14;79.89
75010;DHT22;63564;46.840;18.336;2023-02-01T19:49:16;4.18;79.45
75010;DHT22;63564;46.840;18.336;2023-02-01T19:52:17;4.26;79.30
75010;DHT22;63564;46.840;18.336;2023-02-01T19:55:18;4.22;79.81
75010;DHT22;63564;46.840;18.336;2023-02-01T19:58:19;4.16;80.65
75010;DHT22;63564;46.840;18.336;2023-02-01T20:01:22;4.24;80.11
75010;DHT22;63564;46.840;18.336;2023-02-01T20:04:22;4.26;79.93
75010;DHT22;63564;46.840;18.336;2023-02-01T20:07:23;4.26;80.02
75010;DHT22;63564;46.840;18.336;2023-02-01T20:10:24;4.28;80.19
75010;DHT22;63564;46.840;18.336;2023-02-01T20:13:25;4.26;80.11
75010;DHT22;63564;46.840;18.336;2023-02-01T20:16:26;4.24;80.14
75010;DHT22;63564;46.840;18.336;2023-02-01T20:19:27;4.18;80.70
75010;DHT22;63564;46.840;18.336;2023-02-01T20:22:28;4.25;80.10
75010;DHT22;63564;46.840;18.336;2023-02-01T20:25:30;4.18;80.48
75010;DHT22;63564;46.840;18.336;2023-02-01T20:28:32;4.18;80.31
75010;DHT22;63564;46.840;18.336;2023-02-01T20:31:33;4.19;80.04
75010;DHT22;63564;46.840;18.336;2023-02-01T20:34:36;4.24;79.30
75010;DHT22;63564;46.840;18.336;2023-02-01T20:37:37;4.21;79.68
75010;DHT22;63564;46.840;18.336;2023-02-01T20:40:38;4.19;79.82
75010;DHT22;63564;46.840;18.336;2023-02-01T20:43:40;4.18;79.41
75010;DHT22;63564;46.840;18.336;2023-02-01T20:46:44;4.19;79.69
75010;DHT22;63564;46.840;18.336;2023-02-01T20:49:45;4.18;79.03
75010;DHT22;63564;46.840;18.336;2023-02-01T20:52:46;4.25;78.99
75010;DHT22;63564;46.840;18.336;2023-02-01T20:55:50;4.28;78.53
75010;DHT22;63564;46.840;18.336;2023-02-01T20:58:52;4.31;78.26
75010;DHT22;63564;46.840;18.336;2023-02-01T21:01:52;4.28;78.64
75010;DHT22;63564;46.840;18.336;2023-02-01T21:04:53;4.24;78.61
75010;DHT22;63564;46.840;18.336;2023-02-01T21:07:54;4.19;78.98
75010;DHT22;63564;46.840;18.336;2023-02-01T21:11:07;4.21;78.31
75010;DHT22;63564;46.840;18.336;2023-02-01T21:14:08;4.21;78.92
75010;DHT22;63564;46.840;18.336;2023-02-01T21:17:09;4.15;79.11
75010;DHT22;63564;46.840;18.336;2023-02-01T21:20:10;4.24;78.81
75010;DHT22;63564;46.840;18.336;2023-02-01T21:23:11;4.25;78.70
75010;DHT22;63564;46.840;18.336;2023-02-01T21:26:14;4.21;79.06
75010;DHT22;63564;46.840;18.336;2023-02-01T21:29:15;4.15;79.66
75010;DHT22;63564;46.840;18.336;2023-02-01T21:32:15;4.11;79.58
75010;DHT22;63564;46.840;18.336;2023-02-01T21:35:16;4.15;79.00